createdAt,value
2022-08-21T00:00:43.585Z,99592.44
2022-08-21T00:03:13.762Z,99599.09
2022-08-21T00:05:44.343Z,99597.97
2022-08-21T00:08:13.175Z,99600.38
2022-08-21T00:10:42.169Z,99596.50
2022-08-21T00:13:13.089Z,99592.97
2022-08-21T00:15:47.385Z,99586.97
2022-08-21T00:18:16.112Z,99581.97
2022-08-21T00:20:45.839Z,99587.25
2022-08-21T00:23:15.214Z,99590.78
2022-08-21T00:25:43.956Z,99586.03
2022-08-21T00:28:14.762Z,99587.25
2022-08-21T00:30:44.328Z,99585.56
2022-08-21T00:33:13.272Z,99589.03
2022-08-21T00:35:43.574Z,99572.69
2022-08-21T00:38:13.052Z,99583.00
2022-08-21T00:40:46.977Z,99585.56
2022-08-21T00:43:19.978Z,99582.38
2022-08-21T00:45:49.058Z,99586.53
2022-08-21T00:48:17.252Z,99588.72
2022-08-21T00:50:50.529Z,99585.91
2022-08-21T00:53:19.276Z,99592.25
2022-08-21T00:55:48.377Z,99581.03
2022-08-21T00:58:20.179Z,99586.34
2022-08-21T01:00:50.754Z,99585.41
2022-08-21T01:03:23.729Z,99587.63
2022-08-21T01:05:52.666Z,99592.06
2022-08-21T01:08:22.890Z,99593.25
2022-08-21T01:10:54.796Z,99591.44
2022-08-21T01:13:31.446Z,99585.84
2022-08-21T01:16:02.622Z,99589.91
2022-08-21T01:18:31.089Z,99581.16
2022-08-21T01:21:10.056Z,99579.19
2022-08-21T01:23:43.969Z,99572.56
2022-08-21T01:26:13.206Z,99580.88
2022-08-21T01:28:46.169Z,99569.25
2022-08-21T01:31:17.164Z,99571.25
2022-08-21T01:33:52.308Z,99581.03
2022-08-21T01:36:22.103Z,99577.25
2022-08-21T01:38:50.924Z,99575.28
2022-08-21T01:41:19.581Z,99574.09
2022-08-21T01:43:47.849Z,99581.53
2022-08-21T01:46:16.937Z,99580.56
2022-08-21T01:48:45.425Z,99570.09
2022-08-21T01:51:13.986Z,99580.03
2022-08-21T01:53:43.587Z,99571.28
2022-08-21T01:56:14.611Z,99573.81
2022-08-21T01:58:44.212Z,99578.47
2022-08-21T02:01:12.754Z,99578.59
2022-08-21T02:03:41.662Z,99574.31
2022-08-21T02:06:15.941Z,99576.78
2022-08-21T02:08:46.039Z,99577.50
2022-08-21T02:11:14.297Z,99577.75
2022-08-21T02:13:42.465Z,99578.47
2022-08-21T02:16:11.208Z,99571.06
2022-08-21T02:18:41.842Z,99572.75
2022-08-21T02:21:10.463Z,99571.59
2022-08-21T02:23:38.591Z,99568.44
2022-08-21T02:26:10.700Z,99576.59
2022-08-21T02:28:39.551Z,99575.03
2022-08-21T02:31:08.902Z,99574.56
2022-08-21T02:33:37.246Z,99568.16
2022-08-21T02:36:06.702Z,99569.63
2022-08-21T02:38:39.063Z,99567.91
2022-08-21T02:41:11.083Z,99566.34
2022-08-21T02:43:39.306Z,99557.59
2022-08-21T02:46:09.474Z,99554.91
2022-08-21T02:48:38.382Z,99547.84
2022-08-21T02:51:08.887Z,99545.63
2022-08-21T02:53:37.733Z,99549.28
2022-08-21T02:56:11.725Z,99560.72
2022-08-21T02:58:42.367Z,99556.22
2022-08-21T03:01:11.642Z,99557.81
2022-08-21T03:03:41.947Z,99555.00
2022-08-21T03:06:12.537Z,99559.53
2022-08-21T03:08:41.293Z,99561.00
2022-08-21T03:11:10.860Z,99560.84
2022-08-21T03:13:42.016Z,99557.00
2022-08-21T03:16:10.759Z,99551.13
2022-08-21T03:18:39.942Z,99558.03
2022-08-21T03:21:08.997Z,99551.84
2022-08-21T03:23:37.281Z,99563.91
2022-08-21T03:26:06.140Z,99565.84
2022-08-21T03:28:37.592Z,99568.91
2022-08-21T03:31:06.705Z,99560.00
2022-08-21T03:33:35.053Z,99561.50
2022-08-21T03:36:06.470Z,99565.13
2022-08-21T03:38:36.119Z,99570.00
2022-08-21T03:41:05.036Z,99571.69
2022-08-21T03:43:34.453Z,99564.66
2022-08-21T03:46:05.464Z,99557.31
2022-08-21T03:48:34.537Z,99564.66
2022-08-21T03:51:03.223Z,99565.38
2022-08-21T03:53:31.930Z,99564.38
2022-08-21T03:56:00.552Z,99580.34
2022-08-21T03:58:30.071Z,99563.53
2022-08-21T04:01:00.605Z,99571.56
2022-08-21T04:03:30.745Z,99566.72
2022-08-21T04:05:58.916Z,99569.75
2022-08-21T04:08:27.462Z,99574.38
2022-08-21T04:10:59.137Z,99583.41
2022-08-21T04:13:29.191Z,99581.31
2022-08-21T04:15:59.081Z,99586.41
2022-08-21T04:18:27.297Z,99584.63
2022-08-21T04:20:59.759Z,99584.34
2022-08-21T04:23:28.855Z,99588.47
2022-08-21T04:25:58.368Z,99595.41
2022-08-21T04:28:30.382Z,99593.44
2022-08-21T04:30:59.639Z,99596.59
2022-08-21T04:33:28.094Z,99598.44
2022-08-21T04:35:57.681Z,99596.00
2022-08-21T04:38:25.935Z,99592.72
2022-08-21T04:40:58.570Z,99591.88
2022-08-21T04:43:27.067Z,99595.88
2022-08-21T04:45:55.827Z,99597.72
2022-08-21T04:48:26.227Z,99600.00
2022-08-21T04:51:00.627Z,99599.88
2022-08-21T04:53:33.898Z,99598.53
2022-08-21T04:56:06.151Z,99602.13
2022-08-21T04:58:34.572Z,99612.22
2022-08-21T05:01:05.075Z,99610.97
2022-08-21T05:03:35.233Z,99614.63
2022-08-21T05:06:06.930Z,99614.63
2022-08-21T05:08:36.080Z,99609.25
2022-08-21T05:11:05.106Z,99613.50
2022-08-21T05:13:33.553Z,99610.25
2022-08-21T05:16:01.963Z,99619.72
2022-08-21T05:18:30.150Z,99615.47
2022-08-21T05:21:01.142Z,99610.59
2022-08-21T05:23:30.830Z,99609.75
2022-08-21T05:25:59.343Z,99611.81
2022-08-21T05:28:28.083Z,99611.94
2022-08-21T05:30:56.441Z,99606.50
2022-08-21T05:33:24.889Z,99605.91
2022-08-21T05:35:54.346Z,99617.13
2022-08-21T05:38:22.506Z,99607.81
2022-08-21T05:40:52.400Z,99608.53
2022-08-21T05:43:20.706Z,99606.31
2022-08-21T05:45:49.100Z,99613.28
2022-08-21T05:48:19.069Z,99607.38
2022-08-21T05:50:48.709Z,99613.59
2022-08-21T05:53:19.281Z,99605.75
2022-08-21T05:55:48.068Z,99608.44
2022-08-21T05:58:19.309Z,99605.03
2022-08-21T06:00:49.375Z,99605.34
2022-08-21T06:03:21.957Z,99605.59
2022-08-21T06:05:51.501Z,99602.97
2022-08-21T06:08:21.190Z,99603.56
2022-08-21T06:10:51.421Z,99605.13
2022-08-21T06:13:22.898Z,99607.66
2022-08-21T06:16:03.168Z,99608.66
2022-08-21T06:18:34.517Z,99609.97
2022-08-21T06:21:02.764Z,99612.72
2022-08-21T06:23:34.036Z,99616.97
2022-08-21T06:26:03.564Z,99615.59
2022-08-21T06:28:35.769Z,99617.03
2022-08-21T06:31:11.605Z,99617.13
2022-08-21T06:33:40.019Z,99616.69
2022-08-21T06:36:09.091Z,99609.88
2022-08-21T06:38:38.811Z,99614.53
2022-08-21T06:41:10.233Z,99630.16
2022-08-21T06:43:40.489Z,99626.72
2022-08-21T06:46:09.278Z,99632.31
2022-08-21T06:48:37.852Z,99631.31
2022-08-21T06:51:06.550Z,99628.22
2022-08-21T06:53:35.572Z,99635.75
2022-08-21T06:56:09.650Z,99639.09
2022-08-21T06:58:39.668Z,99624.97
2022-08-21T07:01:09.476Z,99627.63
2022-08-21T07:03:41.404Z,99629.06
2022-08-21T07:06:14.975Z,99626.19
2022-08-21T07:08:46.276Z,99625.81
2022-08-21T07:11:19.713Z,99629.78
2022-08-21T07:13:50.360Z,99631.94
2022-08-21T07:16:18.829Z,99629.84
2022-08-21T07:18:47.092Z,99626.75
2022-08-21T07:21:15.417Z,99627.16
2022-08-21T07:23:46.182Z,99628.00
2022-08-21T07:26:16.465Z,99623.69
2022-08-21T07:28:44.921Z,99625.19
2022-08-21T07:31:19.346Z,99629.19
2022-08-21T07:33:50.741Z,99629.06
2022-08-21T07:36:19.528Z,99621.25
2022-08-21T07:38:47.659Z,99625.09
2022-08-21T07:41:18.405Z,99630.97
2022-08-21T07:46:17.303Z,99615.63
2022-08-21T07:48:45.510Z,99621.00
2022-08-21T07:51:16.398Z,99623.56
2022-08-21T07:53:49.263Z,99625.84
2022-08-21T07:56:18.124Z,99623.78
2022-08-21T07:58:46.569Z,99619.66
2022-08-21T08:01:16.423Z,99618.13
2022-08-21T08:03:46.121Z,99617.00
2022-08-21T08:06:14.905Z,99618.88
2022-08-21T08:08:43.878Z,99614.22
2022-08-21T08:11:16.192Z,99618.03
2022-08-21T08:13:47.741Z,99609.41
2022-08-21T08:16:17.692Z,99598.75
2022-08-21T08:18:46.535Z,99601.31
2022-08-21T08:21:15.702Z,99591.53
2022-08-21T08:23:45.136Z,99596.53
2022-08-21T08:26:13.740Z,99587.31
2022-08-21T08:28:41.964Z,99589.72
2022-08-21T08:31:10.438Z,99588.06
2022-08-21T08:33:40.067Z,99590.03
2022-08-21T08:36:15.776Z,99591.84
2022-08-21T08:38:44.270Z,99592.25
2022-08-21T08:41:15.437Z,99595.94
2022-08-21T08:43:51.468Z,99590.25
2022-08-21T08:46:28.263Z,99592.66
2022-08-21T08:49:03.959Z,99590.38
2022-08-21T08:51:39.592Z,99590.97
2022-08-21T08:54:13.847Z,99585.88
2022-08-21T08:56:42.914Z,99586.16
2022-08-21T08:59:17.417Z,99592.66
2022-08-21T09:01:46.137Z,99597.75
2022-08-21T09:04:24.878Z,99584.00
2022-08-21T09:07:03.681Z,99584.78
2022-08-21T09:09:42.541Z,99588.50
2022-08-21T09:12:18.098Z,99589.06
2022-08-21T09:15:14.284Z,99586.72
2022-08-21T09:18:09.879Z,99587.31
2022-08-21T09:20:49.377Z,99586.94
2022-08-21T09:23:29.894Z,99591.44
2022-08-21T09:26:15.539Z,99589.88
2022-08-21T09:28:44.550Z,99598.44
2022-08-21T09:31:23.350Z,99586.97
2022-08-21T09:33:59.833Z,99597.75
2022-08-21T09:36:36.474Z,99579.00
2022-08-21T09:39:06.219Z,99587.28
2022-08-21T09:41:37.546Z,99588.28
2022-08-21T09:44:08.076Z,99585.97
2022-08-21T09:46:36.694Z,99571.91
2022-08-21T09:49:06.827Z,99578.25
2022-08-21T09:51:55.219Z,99581.28
2022-08-21T09:54:31.352Z,99587.78
2022-08-21T09:57:19.469Z,99583.72
2022-08-21T09:59:49.664Z,99589.09
2022-08-21T10:02:28.023Z,99583.19
2022-08-21T10:04:58.852Z,99582.47
2022-08-21T10:07:31.596Z,99584.69
2022-08-21T10:10:06.321Z,99583.97
2022-08-21T10:12:45.282Z,99581.41
2022-08-21T10:15:22.249Z,99581.72
2022-08-21T10:18:00.077Z,99587.72
2022-08-21T10:20:37.710Z,99585.53
2022-08-21T10:23:29.924Z,99579.31
2022-08-21T10:26:13.355Z,99587.75
2022-08-21T10:28:52.968Z,99585.97
2022-08-21T10:31:34.642Z,99578.47
2022-08-21T10:34:17.101Z,99584.22
2022-08-21T10:36:53.396Z,99584.03
2022-08-21T10:39:36.567Z,99583.41
2022-08-21T10:42:19.648Z,99579.16
2022-08-21T10:45:04.912Z,99582.91
2022-08-21T10:47:37.537Z,99578.16
2022-08-21T10:50:14.583Z,99579.53
2022-08-21T10:52:57.026Z,99576.56
2022-08-21T10:55:34.057Z,99571.56
2022-08-21T10:58:07.152Z,99572.44
2022-08-21T11:00:41.134Z,99570.84
2022-08-21T11:03:16.150Z,99575.56
2022-08-21T11:05:50.963Z,99576.56
2022-08-21T11:08:29.628Z,99577.97
2022-08-21T11:11:04.923Z,99573.19
2022-08-21T11:13:42.736Z,99572.69
2022-08-21T11:16:21.009Z,99569.91
2022-08-21T11:18:55.648Z,99562.22
2022-08-21T11:21:38.459Z,99574.56
2022-08-21T11:24:19.817Z,99563.34
2022-08-21T11:26:55.394Z,99564.44
2022-08-21T11:29:28.858Z,99568.31
2022-08-21T11:32:03.098Z,99562.97
2022-08-21T11:34:38.709Z,99562.03
2022-08-21T11:37:15.294Z,99565.19
2022-08-21T11:39:52.995Z,99563.94
2022-08-21T11:42:31.356Z,99560.91
2022-08-21T11:45:16.235Z,99558.66
2022-08-21T11:47:56.815Z,99554.09
2022-08-21T11:50:34.296Z,99554.31
2022-08-21T11:53:10.599Z,99555.34
2022-08-21T11:55:43.709Z,99547.28
2022-08-21T11:58:20.307Z,99543.31
2022-08-21T12:00:53.701Z,99539.25
2022-08-21T12:03:29.047Z,99540.44
2022-08-21T12:06:01.025Z,99542.22
2022-08-21T12:08:31.881Z,99549.91
2022-08-21T12:11:06.439Z,99543.13
2022-08-21T12:13:42.032Z,99539.69
2022-08-21T12:16:16.406Z,99543.56
2022-08-21T12:18:45.426Z,99539.44
2022-08-21T12:21:25.537Z,99537.59
2022-08-21T12:24:05.459Z,99533.22
2022-08-21T12:26:36.364Z,99537.59
2022-08-21T12:29:15.140Z,99534.66
2022-08-21T12:31:52.632Z,99522.22
2022-08-21T12:34:23.451Z,99527.44
2022-08-21T12:36:57.220Z,99526.28
2022-08-21T12:39:28.466Z,99529.91
2022-08-21T12:42:02.615Z,99528.78
2022-08-21T12:44:39.312Z,99523.47
2022-08-21T12:47:15.957Z,99524.59
2022-08-21T12:49:54.218Z,99517.69
2022-08-21T12:52:25.033Z,99519.84
2022-08-21T12:54:53.252Z,99524.09
2022-08-21T12:57:24.433Z,99531.69
2022-08-21T13:00:00.607Z,99524.19
2022-08-21T13:02:36.975Z,99516.72
2022-08-21T13:05:08.383Z,99513.81
2022-08-21T13:07:39.613Z,99514.59
2022-08-21T13:10:18.855Z,99508.91
2022-08-21T13:12:48.561Z,99506.59
2022-08-21T13:15:33.137Z,99512.16
2022-08-21T13:18:04.490Z,99504.31
2022-08-21T13:20:35.417Z,99514.06
2022-08-21T13:23:04.446Z,99513.63
2022-08-21T13:25:38.623Z,99516.06
2022-08-21T13:28:10.013Z,99523.25
2022-08-21T13:30:45.871Z,99518.19
2022-08-21T13:33:17.300Z,99523.56
2022-08-21T13:35:52.120Z,99525.94
2022-08-21T13:38:27.003Z,99524.66
2022-08-21T13:41:00.242Z,99516.56
2022-08-21T13:43:30.904Z,99523.59
2022-08-21T13:46:02.502Z,99530.50
2022-08-21T13:48:35.962Z,99533.19
2022-08-21T13:51:05.336Z,99525.81
2022-08-21T13:53:36.961Z,99527.34
2022-08-21T13:56:07.126Z,99524.53
2022-08-21T13:58:44.639Z,99530.69
2022-08-21T14:01:25.070Z,99526.72
2022-08-21T14:03:56.876Z,99526.91
2022-08-21T14:06:28.204Z,99526.69
2022-08-21T14:09:00.172Z,99526.28
2022-08-21T14:11:30.202Z,99518.97
2022-08-21T14:14:01.987Z,99522.38
2022-08-21T14:16:45.233Z,99527.34
2022-08-21T14:19:23.980Z,99526.06
2022-08-21T14:21:52.734Z,99522.13
2022-08-21T14:24:29.508Z,99523.81
2022-08-21T14:27:00.656Z,99519.84
2022-08-21T14:29:34.742Z,99523.53
2022-08-21T14:32:16.565Z,99525.38
2022-08-21T14:34:52.761Z,99527.06
2022-08-21T14:37:23.316Z,99523.63
2022-08-21T14:39:51.804Z,99522.09
2022-08-21T14:42:20.330Z,99526.78
2022-08-21T14:44:49.088Z,99517.56
2022-08-21T14:47:19.763Z,99523.63
2022-08-21T14:49:51.378Z,99523.50
2022-08-21T14:52:19.663Z,99521.81
2022-08-21T14:54:48.048Z,99527.63
2022-08-21T14:57:16.187Z,99520.44
2022-08-21T14:59:44.566Z,99519.53
2022-08-21T15:02:13.301Z,99517.00
2022-08-21T15:04:44.601Z,99512.06
2022-08-21T15:07:12.975Z,99516.44
2022-08-21T15:09:41.255Z,99511.91
2022-08-21T15:12:11.031Z,99516.44
2022-08-21T15:14:42.520Z,99512.06
2022-08-21T15:17:13.144Z,99505.94
2022-08-21T15:19:42.920Z,99508.38
2022-08-21T15:22:19.117Z,99511.22
2022-08-21T15:24:56.581Z,99502.56
2022-08-21T15:27:25.710Z,99507.94
2022-08-21T15:29:55.316Z,99509.94
2022-08-21T15:32:27.253Z,99508.69
2022-08-21T15:35:01.147Z,99510.63
2022-08-21T15:37:30.642Z,99502.56
2022-08-21T15:39:59.349Z,99505.41
2022-08-21T15:42:28.819Z,99498.59
2022-08-21T15:44:58.296Z,99503.13
2022-08-21T15:47:30.820Z,99506.66
2022-08-21T15:50:00.581Z,99505.13
2022-08-21T15:52:28.899Z,99504.69
2022-08-21T15:54:57.117Z,99508.09
2022-08-21T15:57:26.922Z,99506.53
2022-08-21T16:00:00.012Z,99504.25
2022-08-21T16:02:31.250Z,99505.25
2022-08-21T16:05:01.938Z,99509.38
2022-08-21T16:07:30.094Z,99511.06
2022-08-21T16:09:58.316Z,99509.38
2022-08-21T16:12:29.372Z,99506.25
2022-08-21T16:14:57.846Z,99510.50
2022-08-21T16:17:30.030Z,99514.59
2022-08-21T16:19:58.785Z,99509.34
2022-08-21T16:22:42.172Z,99514.16
2022-08-21T16:25:14.037Z,99508.34
2022-08-21T16:27:45.200Z,99503.22
2022-08-21T16:30:15.427Z,99508.88
2022-08-21T16:32:44.596Z,99507.84
2022-08-21T16:35:15.637Z,99507.28
2022-08-21T16:37:45.388Z,99496.78
2022-08-21T16:40:15.020Z,99507.38
2022-08-21T16:42:45.136Z,99504.44
2022-08-21T16:45:16.034Z,99503.72
2022-08-21T16:47:44.746Z,99496.78
2022-08-21T16:50:15.123Z,99499.03
2022-08-21T16:52:44.686Z,99494.06
2022-08-21T16:55:12.909Z,99491.53
2022-08-21T16:57:41.316Z,99490.53
2022-08-21T17:00:12.219Z,99498.13
2022-08-21T17:02:48.375Z,99493.88
2022-08-21T17:05:17.042Z,99490.63
2022-08-21T17:07:46.856Z,99493.31
2022-08-21T17:10:16.813Z,99496.00
2022-08-21T17:12:55.751Z,99494.16
2022-08-21T17:15:26.977Z,99502.88
2022-08-21T17:17:56.537Z,99501.47
2022-08-21T17:20:26.156Z,99492.84
2022-08-21T17:22:58.307Z,99491.25
2022-08-21T17:25:27.681Z,99491.38
2022-08-21T17:27:56.775Z,99495.19
2022-08-21T17:30:28.380Z,99487.28
2022-08-21T17:32:59.137Z,99490.38
2022-08-21T17:35:27.385Z,99496.00
2022-08-21T17:37:57.214Z,99489.06
2022-08-21T17:40:25.915Z,99502.19
2022-08-21T17:42:54.322Z,99502.09
2022-08-21T17:45:24.782Z,99503.94
2022-08-21T17:47:53.234Z,99504.78
2022-08-21T17:50:22.454Z,99500.41
2022-08-21T17:52:51.221Z,99500.66
2022-08-21T17:55:23.191Z,99490.75
2022-08-21T17:57:55.870Z,99493.44
2022-08-21T18:00:31.410Z,99493.06
2022-08-21T18:03:03.172Z,99496.47
2022-08-21T18:05:32.045Z,99496.31
2022-08-21T18:08:03.457Z,99505.09
2022-08-21T18:10:33.688Z,99506.19
2022-08-21T18:13:06.833Z,99517.97
2022-08-21T18:15:35.832Z,99508.94
2022-08-21T18:18:06.804Z,99509.66
2022-08-21T18:20:35.433Z,99515.72
2022-08-21T18:23:03.655Z,99521.22
2022-08-21T18:25:33.866Z,99526.25
2022-08-21T18:28:06.102Z,99519.81
2022-08-21T18:30:38.158Z,99519.06
2022-08-21T18:33:09.953Z,99519.06
2022-08-21T18:35:38.710Z,99525.69
2022-08-21T18:38:07.286Z,99511.97
2022-08-21T18:40:39.866Z,99518.56
2022-08-21T18:43:11.177Z,99527.47
2022-08-21T18:45:46.071Z,99522.94
2022-08-21T18:48:17.830Z,99529.16
2022-08-21T18:50:47.935Z,99521.97
2022-08-21T18:53:24.034Z,99522.72
2022-08-21T18:56:04.996Z,99520.88
2022-08-21T18:58:35.347Z,99520.59
2022-08-21T19:01:03.772Z,99515.50
2022-08-21T19:03:34.249Z,99513.25
2022-08-21T19:06:02.768Z,99517.22
2022-08-21T19:08:31.317Z,99522.06
2022-08-21T19:11:02.707Z,99517.84
2022-08-21T19:13:31.868Z,99511.88
2022-08-21T19:16:02.938Z,99516.53
2022-08-21T19:18:35.384Z,99518.09
2022-08-21T19:21:04.280Z,99508.75
2022-08-21T19:23:35.243Z,99506.19
2022-08-21T19:26:08.724Z,99510.84
2022-08-21T19:28:44.871Z,99503.09
2022-08-21T19:31:17.062Z,99507.72
2022-08-21T19:33:51.335Z,99508.69
2022-08-21T19:36:21.087Z,99505.03
2022-08-21T19:38:49.401Z,99508.78
2022-08-21T19:41:21.819Z,99516.97
2022-08-21T19:43:54.545Z,99508.16
2022-08-21T19:46:26.958Z,99511.41
2022-08-21T19:48:57.014Z,99506.06
2022-08-21T19:51:25.723Z,99506.19
2022-08-21T19:53:56.949Z,99505.47
2022-08-21T19:56:29.016Z,99505.63
2022-08-21T19:58:58.488Z,99507.59
2022-08-21T20:01:27.935Z,99491.03
2022-08-21T20:03:57.636Z,99489.47
2022-08-21T20:06:26.684Z,99486.78
2022-08-21T20:08:56.176Z,99486.19
2022-08-21T20:11:31.513Z,99479.13
2022-08-21T20:14:00.930Z,99481.34
2022-08-21T20:16:30.132Z,99483.66
2022-08-21T20:18:58.879Z,99481.09
2022-08-21T20:21:27.382Z,99482.81
2022-08-21T20:23:56.072Z,99485.34
2022-08-21T20:26:28.137Z,99480.50
2022-08-21T20:28:57.963Z,99482.22
2022-08-21T20:31:27.956Z,99475.03
2022-08-21T20:33:56.208Z,99469.78
2022-08-21T20:36:25.113Z,99469.53
2022-08-21T20:38:53.582Z,99468.94
2022-08-21T20:41:30.509Z,99467.69
2022-08-21T20:44:01.559Z,99459.78
2022-08-21T20:46:34.138Z,99457.69
2022-08-21T20:49:02.253Z,99457.81
2022-08-21T20:51:36.016Z,99451.16
2022-08-21T20:54:09.165Z,99448.72
2022-08-21T20:56:45.570Z,99450.44
2022-08-21T20:59:24.710Z,99456.50
2022-08-21T21:01:55.040Z,99450.44
2022-08-21T21:04:38.967Z,99444.34
2022-08-21T21:07:09.171Z,99450.44
2022-08-21T21:09:42.579Z,99444.91
2022-08-21T21:12:17.717Z,99443.16
2022-08-21T21:15:01.756Z,99444.28
2022-08-21T21:17:37.999Z,99442.00
2022-08-21T21:20:12.026Z,99441.03
2022-08-21T21:22:46.834Z,99442.00
2022-08-21T21:25:19.767Z,99436.78
2022-08-21T21:27:58.328Z,99446.19
2022-08-21T21:30:32.465Z,99450.97
2022-08-21T21:33:00.911Z,99451.38
2022-08-21T21:35:36.568Z,99446.50
2022-08-21T21:38:17.857Z,99449.47
2022-08-21T21:40:53.804Z,99454.81
2022-08-21T21:43:32.463Z,99450.31
2022-08-21T21:46:19.596Z,99448.03
2022-08-21T21:49:03.340Z,99447.28
2022-08-21T21:51:45.858Z,99450.56
2022-08-21T21:54:26.720Z,99443.50
2022-08-21T21:57:04.737Z,99443.13
2022-08-21T21:59:47.436Z,99439.47
2022-08-21T22:02:25.986Z,99437.78
2022-08-21T22:05:03.408Z,99439.16
2022-08-21T22:07:40.045Z,99430.28
2022-08-21T22:10:18.590Z,99441.69
2022-08-21T22:12:56.313Z,99437.91
2022-08-21T22:15:37.688Z,99439.88
2022-08-21T22:18:10.621Z,99443.66
2022-08-21T22:20:43.376Z,99439.16
2022-08-21T22:23:17.702Z,99431.47
2022-08-21T22:25:50.242Z,99431.75
2022-08-21T22:28:25.743Z,99433.19
2022-08-21T22:30:57.746Z,99439.66
2022-08-21T22:33:29.755Z,99434.28
2022-08-21T22:35:59.800Z,99427.81
2022-08-21T22:38:36.971Z,99431.53
2022-08-21T22:41:14.988Z,99432.50
2022-08-21T22:43:53.724Z,99424.75
2022-08-21T22:46:28.434Z,99434.22
2022-08-21T22:49:03.740Z,99427.41
2022-08-21T22:51:36.263Z,99423.03
2022-08-21T22:54:05.493Z,99415.28
2022-08-21T22:56:49.494Z,99422.06
2022-08-21T22:59:26.647Z,99414.16
2022-08-21T23:01:59.555Z,99414.03
2022-08-21T23:04:29.557Z,99414.28
2022-08-21T23:06:59.588Z,99410.91
2022-08-21T23:09:35.437Z,99407.38
2022-08-21T23:14:55.229Z,99402.16
2022-08-21T23:17:35.435Z,99405.06
2022-08-21T23:20:14.510Z,99398.72
2022-08-21T23:22:53.716Z,99394.00
2022-08-21T23:25:38.914Z,99399.34
2022-08-21T23:28:13.196Z,99388.94
2022-08-21T23:30:48.522Z,99394.66
2022-08-21T23:33:38.642Z,99391.84
2022-08-21T23:36:36.273Z,99401.56
2022-08-21T23:39:20.474Z,99401.84
2022-08-21T23:41:56.945Z,99395.50
2022-08-21T23:44:38.250Z,99402.97
2022-08-21T23:47:22.408Z,99407.81
2022-08-21T23:50:00.043Z,99409.91
2022-08-21T23:52:46.364Z,99403.13
2022-08-21T23:55:29.622Z,99398.84
2022-08-21T23:58:08.716Z,99407.88
